sensor_id;sensor_type;location;lat;lon;timestamp;temperature;humidity
52211;DHT22;38179;52.756;6.906;2023-03-01T00:00:42;0.00;99.90
52211;DHT22;38179;52.756;6.906;2023-03-01T00:03:12;-0.10;99.90
52211;DHT22;38179;52.756;6.906;2023-03-01T00:05:47;0.00;99.90
52211;DHT22;38179;52.756;6.906;2023-03-01T00:08:13;-0.10;99.90
52211;DHT22;38179;52.756;6.906;2023-03-01T00:10:39;-0.10;99.90
52211;DHT22;38179;52.756;6.906;2023-03-01T00:13:06;-0.10;99.90
52211;DHT22;38179;52.756;6.906;2023-03-01T00:15:32;-0.10;99.90
52211;DHT22;38179;52.756;6.906;2023-03-01T00:17:57;-0.10;99.90
52211;DHT22;38179;52.756;6.906;2023-03-01T00:20:24;-0.10;99.90
52211;DHT22;38179;52.756;6.906;2023-03-01T00:22:49;-0.10;99.90
52211;DHT22;38179;52.756;6.906;2023-03-01T00:25:15;-0.10;99.90
52211;DHT22;38179;52.756;6.906;2023-03-01T00:27:41;-0.10;99.90
52211;DHT22;38179;52.756;6.906;2023-03-01T00:30:08;-0.20;99.90
52211;DHT22;38179;52.756;6.906;2023-03-01T00:32:34;-0.20;99.90
52211;DHT22;38179;52.756;6.906;2023-03-01T00:35:00;-0.20;99.90
52211;DHT22;38179;52.756;6.906;2023-03-01T00:37:25;-0.20;99.90
52211;DHT22;38179;52.756;6.906;2023-03-01T00:39:51;-0.30;99.90
52211;DHT22;38179;52.756;6.906;2023-03-01T00:42:17;-0.30;99.90
52211;DHT22;38179;52.756;6.906;2023-03-01T00:44:43;-0.30;99.90
52211;DHT22;38179;52.756;6.906;2023-03-01T00:47:09;-0.30;99.90
52211;DHT22;38179;52.756;6.906;2023-03-01T00:49:35;-0.20;99.90
52211;DHT22;38179;52.756;6.906;2023-03-01T00:52:01;-0.20;99.90
52211;DHT22;38179;52.756;6.906;2023-03-01T00:54:26;-0.20;99.90
52211;DHT22;38179;52.756;6.906;2023-03-01T00:56:52;-0.20;99.90
52211;DHT22;38179;52.756;6.906;2023-03-01T00:59:18;-0.30;99.90
52211;DHT22;38179;52.756;6.906;2023-03-01T01:01:44;-0.40;99.90
52211;DHT22;38179;52.756;6.906;2023-03-01T01:04:12;-0.40;99.90
52211;DHT22;38179;52.756;6.906;2023-03-01T01:06:47;-0.40;99.90
52211;DHT22;38179;52.756;6.906;2023-03-01T01:09:15;-0.40;99.90
52211;DHT22;38179;52.756;6.906;2023-03-01T01:11:49;-0.40;99.90
52211;DHT22;38179;52.756;6.906;2023-03-01T01:14:16;-0.40;99.90
52211;DHT22;38179;52.756;6.906;2023-03-01T01:16:42;-0.40;99.90
52211;DHT22;38179;52.756;6.906;2023-03-01T01:19:10;-0.40;99.90
52211;DHT22;38179;52.756;6.906;2023-03-01T01:21:36;-0.40;99.90
52211;DHT22;38179;52.756;6.906;2023-03-01T01:24:04;-0.40;99.90
52211;DHT22;38179;52.756;6.906;2023-03-01T01:26:32;-0.40;99.90
52211;DHT22;38179;52.756;6.906;2023-03-01T01:29:01;-0.50;99.90
52211;DHT22;38179;52.756;6.906;2023-03-01T01:31:28;-0.60;99.90
52211;DHT22;38179;52.756;6.906;2023-03-01T01:33:55;-0.70;99.90
52211;DHT22;38179;52.756;6.906;2023-03-01T01:36:23;-0.60;99.90
52211;DHT22;38179;52.756;6.906;2023-03-01T01:38:49;-0.60;99.90
52211;DHT22;38179;52.756;6.906;2023-03-01T01:41:16;-0.70;99.90
52211;DHT22;38179;52.756;6.906;2023-03-01T01:43:44;-1.00;99.90
52211;DHT22;38179;52.756;6.906;2023-03-01T01:46:31;-1.10;99.90
52211;DHT22;38179;52.756;6.906;2023-03-01T01:49:01;-1.00;99.90
52211;DHT22;38179;52.756;6.906;2023-03-01T01:51:37;-1.00;99.90
52211;DHT22;38179;52.756;6.906;2023-03-01T01:54:16;-1.10;99.90
52211;DHT22;38179;52.756;6.906;2023-03-01T01:56:46;-1.30;99.90
52211;DHT22;38179;52.756;6.906;2023-03-01T01:59:14;-1.20;99.90
52211;DHT22;38179;52.756;6.906;2023-03-01T02:01:40;-1.20;99.90
52211;DHT22;38179;52.756;6.906;2023-03-01T02:04:06;-1.20;99.90
52211;DHT22;38179;52.756;6.906;2023-03-01T02:06:36;-1.30;99.90
52211;DHT22;38179;52.756;6.906;2023-03-01T02:09:13;-1.30;99.90
52211;DHT22;38179;52.756;6.906;2023-03-01T02:11:41;-1.30;99.90
52211;DHT22;38179;52.756;6.906;2023-03-01T02:14:08;-1.40;99.90
52211;DHT22;38179;52.756;6.906;2023-03-01T02:16:35;-1.30;99.90
52211;DHT22;38179;52.756;6.906;2023-03-01T02:19:01;-1.20;99.90
52211;DHT22;38179;52.756;6.906;2023-03-01T02:21:33;-1.20;99.90
52211;DHT22;38179;52.756;6.906;2023-03-01T02:24:16;-1.10;99.90
52211;DHT22;38179;52.756;6.906;2023-03-01T02:26:51;-1.10;99.90
52211;DHT22;38179;52.756;6.906;2023-03-01T02:29:18;-1.20;99.90
52211;DHT22;38179;52.756;6.906;2023-03-01T02:31:44;-1.20;99.90
52211;DHT22;38179;52.756;6.906;2023-03-01T02:34:23;-1.10;99.90
52211;DHT22;38179;52.756;6.906;2023-03-01T02:36:54;-1.10;99.90
52211;DHT22;38179;52.756;6.906;2023-03-01T02:39:22;-1.10;99.90
52211;DHT22;38179;52.756;6.906;2023-03-01T02:41:53;-1.10;99.90
52211;DHT22;38179;52.756;6.906;2023-03-01T02:44:20;-1.20;99.90
52211;DHT22;38179;52.756;6.906;2023-03-01T02:46:49;-1.20;99.90
52211;DHT22;38179;52.756;6.906;2023-03-01T02:54:30;-1.30;99.90
52211;DHT22;38179;52.756;6.906;2023-03-01T02:56:56;-1.30;99.90
52211;DHT22;38179;52.756;6.906;2023-03-01T02:59:26;-1.20;99.90
52211;DHT22;38179;52.756;6.906;2023-03-01T03:01:54;-1.20;99.90
52211;DHT22;38179;52.756;6.906;2023-03-01T03:04:20;-1.20;99.90
52211;DHT22;38179;52.756;6.906;2023-03-01T03:06:50;-1.20;99.90
52211;DHT22;38179;52.756;6.906;2023-03-01T03:09:17;-1.20;99.90
52211;DHT22;38179;52.756;6.906;2023-03-01T03:11:43;-1.20;99.90
52211;DHT22;38179;52.756;6.906;2023-03-01T03:14:11;-1.20;99.90
52211;DHT22;38179;52.756;6.906;2023-03-01T03:16:44;-1.10;99.90
52211;DHT22;38179;52.756;6.906;2023-03-01T03:19:10;-1.10;99.90
52211;DHT22;38179;52.756;6.906;2023-03-01T03:21:36;-1.30;99.90
52211;DHT22;38179;52.756;6.906;2023-03-01T03:24:03;-1.40;99.90
52211;DHT22;38179;52.756;6.906;2023-03-01T03:26:30;-1.50;99.90
52211;DHT22;38179;52.756;6.906;2023-03-01T03:28:56;-1.40;99.90
52211;DHT22;38179;52.756;6.906;2023-03-01T03:31:22;-1.40;99.90
52211;DHT22;38179;52.756;6.906;2023-03-01T03:33:48;-1.50;99.90
52211;DHT22;38179;52.756;6.906;2023-03-01T03:36:19;-1.50;99.90
52211;DHT22;38179;52.756;6.906;2023-03-01T03:38:45;-1.50;99.90
52211;DHT22;38179;52.756;6.906;2023-03-01T03:41:12;-1.50;99.90
52211;DHT22;38179;52.756;6.906;2023-03-01T03:43:40;-1.50;99.90
52211;DHT22;38179;52.756;6.906;2023-03-01T03:46:09;-1.40;99.90
52211;DHT22;38179;52.756;6.906;2023-03-01T03:48:43;-1.40;99.90
52211;DHT22;38179;52.756;6.906;2023-03-01T03:51:12;-1.40;99.90
52211;DHT22;38179;52.756;6.906;2023-03-01T03:53:38;-1.40;99.90
52211;DHT22;38179;52.756;6.906;2023-03-01T03:56:04;-1.40;99.90
52211;DHT22;38179;52.756;6.906;2023-03-01T03:58:30;-1.50;99.90
52211;DHT22;38179;52.756;6.906;2023-03-01T04:00:56;-1.60;99.90
52211;DHT22;38179;52.756;6.906;2023-03-01T04:03:24;-1.60;99.90
52211;DHT22;38179;52.756;6.906;2023-03-01T04:05:51;-1.70;99.90
52211;DHT22;38179;52.756;6.906;2023-03-01T04:08:21;-1.80;99.90
52211;DHT22;38179;52.756;6.906;2023-03-01T04:10:50;-1.80;99.90
52211;DHT22;38179;52.756;6.906;2023-03-01T04:13:18;-1.80;99.90
52211;DHT22;38179;52.756;6.906;2023-03-01T04:15:52;-1.70;99.90
52211;DHT22;38179;52.756;6.906;2023-03-01T04:18:20;-1.70;99.90
52211;DHT22;38179;52.756;6.906;2023-03-01T04:20:46;-1.60;99.90
52211;DHT22;38179;52.756;6.906;2023-03-01T04:23:17;-1.60;99.90
52211;DHT22;38179;52.756;6.906;2023-03-01T04:25:56;-1.00;99.90
52211;DHT22;38179;52.756;6.906;2023-03-01T04:28:34;-1.60;99.90
52211;DHT22;38179;52.756;6.906;2023-03-01T04:31:04;-1.60;99.90
52211;DHT22;38179;52.756;6.906;2023-03-01T04:33:49;-1.50;99.90
52211;DHT22;38179;52.756;6.906;2023-03-01T04:36:17;-1.50;99.90
52211;DHT22;38179;52.756;6.906;2023-03-01T04:38:44;-1.50;99.90
52211;DHT22;38179;52.756;6.906;2023-03-01T04:41:14;-1.50;99.90
52211;DHT22;38179;52.756;6.906;2023-03-01T04:43:40;-1.50;99.90
52211;DHT22;38179;52.756;6.906;2023-03-01T04:46:08;-1.50;99.90
52211;DHT22;38179;52.756;6.906;2023-03-01T04:48:39;-1.50;99.90
52211;DHT22;38179;52.756;6.906;2023-03-01T04:51:05;-1.50;99.90
52211;DHT22;38179;52.756;6.906;2023-03-01T04:53:33;-1.50;99.90
52211;DHT22;38179;52.756;6.906;2023-03-01T04:55:59;-1.50;99.90
52211;DHT22;38179;52.756;6.906;2023-03-01T04:58:26;-1.50;99.90
52211;DHT22;38179;52.756;6.906;2023-03-01T05:00:55;-1.50;99.90
52211;DHT22;38179;52.756;6.906;2023-03-01T05:03:21;-1.50;99.90
52211;DHT22;38179;52.756;6.906;2023-03-01T05:05:49;-1.50;99.90
52211;DHT22;38179;52.756;6.906;2023-03-01T05:08:15;-1.50;99.90
52211;DHT22;38179;52.756;6.906;2023-03-01T05:10:47;-1.50;99.90
52211;DHT22;38179;52.756;6.906;2023-03-01T05:13:13;-1.50;99.90
52211;DHT22;38179;52.756;6.906;2023-03-01T05:15:59;-1.60;99.90
52211;DHT22;38179;52.756;6.906;2023-03-01T05:18:27;-1.60;99.90
52211;DHT22;38179;52.756;6.906;2023-03-01T05:20:55;-1.60;99.90
52211;DHT22;38179;52.756;6.906;2023-03-01T05:23:24;-1.60;99.90
52211;DHT22;38179;52.756;6.906;2023-03-01T05:25:50;-1.60;99.90
52211;DHT22;38179;52.756;6.906;2023-03-01T05:28:19;-1.60;99.90
52211;DHT22;38179;52.756;6.906;2023-03-01T05:30:47;-1.60;99.90
52211;DHT22;38179;52.756;6.906;2023-03-01T05:33:13;-1.60;99.90
52211;DHT22;38179;52.756;6.906;2023-03-01T05:35:42;-1.60;99.90
52211;DHT22;38179;52.756;6.906;2023-03-01T05:38:10;-1.60;99.90
52211;DHT22;38179;52.756;6.906;2023-03-01T05:40:43;-1.60;99.90
52211;DHT22;38179;52.756;6.906;2023-03-01T05:43:10;-1.60;99.90
52211;DHT22;38179;52.756;6.906;2023-03-01T05:45:37;-1.60;99.90
52211;DHT22;38179;52.756;6.906;2023-03-01T05:48:05;-1.60;99.90
52211;DHT22;38179;52.756;6.906;2023-03-01T05:50:42;-1.60;99.90
52211;DHT22;38179;52.756;6.906;2023-03-01T05:53:14;-1.60;99.90
52211;DHT22;38179;52.756;6.906;2023-03-01T05:55:41;-1.60;99.90
52211;DHT22;38179;52.756;6.906;2023-03-01T05:58:12;-1.60;99.90
52211;DHT22;38179;52.756;6.906;2023-03-01T06:00:39;-1.60;99.90
52211;DHT22;38179;52.756;6.906;2023-03-01T06:03:06;-1.60;99.90
52211;DHT22;38179;52.756;6.906;2023-03-01T06:05:32;-1.60;99.90
52211;DHT22;38179;52.756;6.906;2023-03-01T06:08:01;-1.60;99.90
52211;DHT22;38179;52.756;6.906;2023-03-01T06:10:27;-1.60;99.90
52211;DHT22;38179;52.756;6.906;2023-03-01T06:15:29;-1.70;99.90
52211;DHT22;38179;52.756;6.906;2023-03-01T06:17:55;-1.70;99.90
52211;DHT22;38179;52.756;6.906;2023-03-01T06:20:25;-1.70;99.90
52211;DHT22;38179;52.756;6.906;2023-03-01T06:22:51;-1.70;99.90
52211;DHT22;38179;52.756;6.906;2023-03-01T06:25:20;-1.70;99.90
52211;DHT22;38179;52.756;6.906;2023-03-01T06:27:47;-1.70;99.90
52211;DHT22;38179;52.756;6.906;2023-03-01T06:30:16;-1.70;99.90
52211;DHT22;38179;52.756;6.906;2023-03-01T06:32:42;-1.70;99.90
52211;DHT22;38179;52.756;6.906;2023-03-01T06:35:12;-1.70;99.90
52211;DHT22;38179;52.756;6.906;2023-03-01T06:37:40;-1.70;99.90
52211;DHT22;38179;52.756;6.906;2023-03-01T06:40:07;-1.70;99.90
52211;DHT22;38179;52.756;6.906;2023-03-01T06:42:36;-1.70;99.90
52211;DHT22;38179;52.756;6.906;2023-03-01T06:45:03;-1.70;99.90
52211;DHT22;38179;52.756;6.906;2023-03-01T06:47:29;-1.70;99.90
52211;DHT22;38179;52.756;6.906;2023-03-01T06:49:55;-1.70;99.90
52211;DHT22;38179;52.756;6.906;2023-03-01T06:52:21;-1.70;99.90
52211;DHT22;38179;52.756;6.906;2023-03-01T06:54:47;-1.70;99.90
52211;DHT22;38179;52.756;6.906;2023-03-01T06:57:13;-1.70;99.90
52211;DHT22;38179;52.756;6.906;2023-03-01T06:59:39;-1.70;99.90
52211;DHT22;38179;52.756;6.906;2023-03-01T07:02:04;-1.60;99.90
52211;DHT22;38179;52.756;6.906;2023-03-01T07:04:30;-1.60;99.90
52211;DHT22;38179;52.756;6.906;2023-03-01T07:06:57;-1.60;99.90
52211;DHT22;38179;52.756;6.906;2023-03-01T07:09:23;-1.50;99.90
52211;DHT22;38179;52.756;6.906;2023-03-01T07:11:49;-1.50;99.90
52211;DHT22;38179;52.756;6.906;2023-03-01T07:14:16;-1.50;99.90
52211;DHT22;38179;52.756;6.906;2023-03-01T07:16:42;-1.50;99.90
52211;DHT22;38179;52.756;6.906;2023-03-01T07:19:08;-1.40;99.90
52211;DHT22;38179;52.756;6.906;2023-03-01T07:21:33;-1.40;99.90
52211;DHT22;38179;52.756;6.906;2023-03-01T07:23:59;-1.40;99.90
52211;DHT22;38179;52.756;6.906;2023-03-01T07:26:25;-1.30;99.90
52211;DHT22;38179;52.756;6.906;2023-03-01T07:28:51;-1.30;99.90
52211;DHT22;38179;52.756;6.906;2023-03-01T07:31:17;-1.20;99.90
52211;DHT22;38179;52.756;6.906;2023-03-01T07:33:43;-1.20;99.90
52211;DHT22;38179;52.756;6.906;2023-03-01T07:36:10;-1.10;99.90
52211;DHT22;38179;52.756;6.906;2023-03-01T07:38:36;-1.10;99.90
52211;DHT22;38179;52.756;6.906;2023-03-01T07:41:03;-1.10;99.90
52211;DHT22;38179;52.756;6.906;2023-03-01T07:43:30;-1.00;99.90
52211;DHT22;38179;52.756;6.906;2023-03-01T07:46:00;-1.00;99.90
52211;DHT22;38179;52.756;6.906;2023-03-01T07:48:27;-1.00;99.90
52211;DHT22;38179;52.756;6.906;2023-03-01T07:50:53;-0.90;99.90
52211;DHT22;38179;52.756;6.906;2023-03-01T07:53:19;-0.90;99.90
52211;DHT22;38179;52.756;6.906;2023-03-01T07:55:45;-0.80;99.90
52211;DHT22;38179;52.756;6.906;2023-03-01T07:58:13;-0.70;99.90
52211;DHT22;38179;52.756;6.906;2023-03-01T08:00:41;-0.60;99.90
52211;DHT22;38179;52.756;6.906;2023-03-01T08:03:07;-0.60;99.90
52211;DHT22;38179;52.756;6.906;2023-03-01T08:05:33;-0.50;99.90
52211;DHT22;38179;52.756;6.906;2023-03-01T08:07:59;-0.50;99.90
52211;DHT22;38179;52.756;6.906;2023-03-01T08:10:25;-0.40;99.90
52211;DHT22;38179;52.756;6.906;2023-03-01T08:12:52;-0.30;99.90
52211;DHT22;38179;52.756;6.906;2023-03-01T08:15:18;-0.30;99.90
52211;DHT22;38179;52.756;6.906;2023-03-01T08:17:44;-0.30;99.90
52211;DHT22;38179;52.756;6.906;2023-03-01T08:20:10;-0.20;99.90
52211;DHT22;38179;52.756;6.906;2023-03-01T08:22:38;-0.20;99.90
52211;DHT22;38179;52.756;6.906;2023-03-01T08:25:04;-0.10;99.90
52211;DHT22;38179;52.756;6.906;2023-03-01T08:27:30;0.00;99.90
52211;DHT22;38179;52.756;6.906;2023-03-01T08:29:55;0.00;99.90
52211;DHT22;38179;52.756;6.906;2023-03-01T08:32:21;0.10;99.90
52211;DHT22;38179;52.756;6.906;2023-03-01T08:34:48;0.20;99.90
52211;DHT22;38179;52.756;6.906;2023-03-01T08:37:14;0.20;99.90
52211;DHT22;38179;52.756;6.906;2023-03-01T08:39:40;0.30;99.90
52211;DHT22;38179;52.756;6.906;2023-03-01T08:42:05;0.30;99.90
52211;DHT22;38179;52.756;6.906;2023-03-01T08:44:31;0.40;99.90
52211;DHT22;38179;52.756;6.906;2023-03-01T08:46:57;0.60;99.90
52211;DHT22;38179;52.756;6.906;2023-03-01T08:49:23;0.60;99.90
52211;DHT22;38179;52.756;6.906;2023-03-01T08:51:50;0.70;99.90
52211;DHT22;38179;52.756;6.906;2023-03-01T08:54:18;0.80;99.90
52211;DHT22;38179;52.756;6.906;2023-03-01T08:56:45;0.90;99.90
52211;DHT22;38179;52.756;6.906;2023-03-01T08:59:13;1.00;99.90
52211;DHT22;38179;52.756;6.906;2023-03-01T09:01:39;1.00;99.90
52211;DHT22;38179;52.756;6.906;2023-03-01T09:04:06;1.10;99.90
52211;DHT22;38179;52.756;6.906;2023-03-01T09:06:33;1.20;99.90
52211;DHT22;38179;52.756;6.906;2023-03-01T09:09:00;1.30;99.90
52211;DHT22;38179;52.756;6.906;2023-03-01T09:11:27;1.40;99.90
52211;DHT22;38179;52.756;6.906;2023-03-01T09:13:53;1.40;99.90
52211;DHT22;38179;52.756;6.906;2023-03-01T09:16:22;1.50;99.90
52211;DHT22;38179;52.756;6.906;2023-03-01T09:18:52;1.60;99.90
52211;DHT22;38179;52.756;6.906;2023-03-01T09:21:20;1.70;99.90
52211;DHT22;38179;52.756;6.906;2023-03-01T09:23:47;1.80;99.90
52211;DHT22;38179;52.756;6.906;2023-03-01T09:26:17;1.80;99.90
52211;DHT22;38179;52.756;6.906;2023-03-01T09:28:45;1.90;99.90
52211;DHT22;38179;52.756;6.906;2023-03-01T09:31:12;1.90;99.90
52211;DHT22;38179;52.756;6.906;2023-03-01T09:33:40;2.00;99.90
52211;DHT22;38179;52.756;6.906;2023-03-01T09:36:10;2.10;99.90
52211;DHT22;38179;52.756;6.906;2023-03-01T09:38:36;2.20;99.90
52211;DHT22;38179;52.756;6.906;2023-03-01T09:41:02;2.20;99.90
52211;DHT22;38179;52.756;6.906;2023-03-01T09:43:38;2.30;99.90
52211;DHT22;38179;52.756;6.906;2023-03-01T09:46:10;2.40;99.90
52211;DHT22;38179;52.756;6.906;2023-03-01T09:48:49;2.40;99.90
52211;DHT22;38179;52.756;6.906;2023-03-01T09:51:19;2.50;99.90
52211;DHT22;38179;52.756;6.906;2023-03-01T09:53:47;2.60;99.90
52211;DHT22;38179;52.756;6.906;2023-03-01T09:56:19;2.70;99.90
52211;DHT22;38179;52.756;6.906;2023-03-01T10:09:57;2.90;99.90
52211;DHT22;38179;52.756;6.906;2023-03-01T10:12:31;3.00;99.90
52211;DHT22;38179;52.756;6.906;2023-03-01T10:15:32;3.10;99.90
52211;DHT22;38179;52.756;6.906;2023-03-01T10:17:57;3.10;99.90
52211;DHT22;38179;52.756;6.906;2023-03-01T10:20:36;3.20;99.90
52211;DHT22;38179;52.756;6.906;2023-03-01T10:23:04;3.30;99.90
52211;DHT22;38179;52.756;6.906;2023-03-01T10:25:41;3.30;99.90
52211;DHT22;38179;52.756;6.906;2023-03-01T10:28:25;3.40;99.90
52211;DHT22;38179;52.756;6.906;2023-03-01T10:30:53;3.40;99.90
52211;DHT22;38179;52.756;6.906;2023-03-01T10:33:28;3.50;99.90
52211;DHT22;38179;52.756;6.906;2023-03-01T10:35:55;3.60;99.90
52211;DHT22;38179;52.756;6.906;2023-03-01T10:38:21;3.70;99.90
52211;DHT22;38179;52.756;6.906;2023-03-01T10:40:54;3.70;99.90
52211;DHT22;38179;52.756;6.906;2023-03-01T10:43:20;3.80;99.90
52211;DHT22;38179;52.756;6.906;2023-03-01T10:45:47;3.80;99.90
52211;DHT22;38179;52.756;6.906;2023-03-01T10:48:23;3.90;99.90
52211;DHT22;38179;52.756;6.906;2023-03-01T10:53:34;4.00;99.90
52211;DHT22;38179;52.756;6.906;2023-03-01T10:56:07;4.10;99.90
52211;DHT22;38179;52.756;6.906;2023-03-01T10:58:35;4.10;99.90
52211;DHT22;38179;52.756;6.906;2023-03-01T11:03:33;4.20;99.90
52211;DHT22;38179;52.756;6.906;2023-03-01T11:11:51;4.30;99.90
52211;DHT22;38179;52.756;6.906;2023-03-01T11:13:58;4.40;99.90
52211;DHT22;38179;52.756;6.906;2023-03-01T11:21:58;4.50;99.90
52211;DHT22;38179;52.756;6.906;2023-03-01T11:27:04;4.50;99.90
52211;DHT22;38179;52.756;6.906;2023-03-01T11:29:43;4.50;99.90
52211;DHT22;38179;52.756;6.906;2023-03-01T11:32:14;4.60;99.90
52211;DHT22;38179;52.756;6.906;2023-03-01T11:34:57;4.60;99.90
52211;DHT22;38179;52.756;6.906;2023-03-01T11:40:55;4.70;99.90
52211;DHT22;38179;52.756;6.906;2023-03-01T11:45:47;4.80;99.90
52211;DHT22;38179;52.756;6.906;2023-03-01T11:48:40;4.80;99.90
52211;DHT22;38179;52.756;6.906;2023-03-01T11:51:21;4.90;99.90
52211;DHT22;38179;52.756;6.906;2023-03-01T11:56:35;5.00;99.90
52211;DHT22;38179;52.756;6.906;2023-03-01T12:16:20;5.40;99.90
52211;DHT22;38179;52.756;6.906;2023-03-01T12:19:07;5.50;99.90
52211;DHT22;38179;52.756;6.906;2023-03-01T12:22:52;5.60;99.90
52211;DHT22;38179;52.756;6.906;2023-03-01T12:25:04;5.60;99.90
52211;DHT22;38179;52.756;6.906;2023-03-01T12:32:58;5.80;99.90
52211;DHT22;38179;52.756;6.906;2023-03-01T12:49:43;6.10;99.90
52211;DHT22;38179;52.756;6.906;2023-03-01T12:52:38;6.20;99.90
52211;DHT22;38179;52.756;6.906;2023-03-01T12:55:02;6.30;99.90
52211;DHT22;38179;52.756;6.906;2023-03-01T12:57:51;6.30;99.90
52211;DHT22;38179;52.756;6.906;2023-03-01T13:05:39;6.40;99.90
52211;DHT22;38179;52.756;6.906;2023-03-01T13:13:18;6.50;99.90
52211;DHT22;38179;52.756;6.906;2023-03-01T13:15:45;6.50;99.90
52211;DHT22;38179;52.756;6.906;2023-03-01T13:26:14;6.60;99.90
52211;DHT22;38179;52.756;6.906;2023-03-01T13:28:51;6.60;99.90
52211;DHT22;38179;52.756;6.906;2023-03-01T13:33:50;6.70;99.90
52211;DHT22;38179;52.756;6.906;2023-03-01T13:38:57;6.80;99.90
52211;DHT22;38179;52.756;6.906;2023-03-01T13:44:35;6.80;99.90
52211;DHT22;38179;52.756;6.906;2023-03-01T13:49:56;6.70;99.90
52211;DHT22;38179;52.756;6.906;2023-03-01T13:52:48;6.70;99.90
52211;DHT22;38179;52.756;6.906;2023-03-01T13:55:21;6.80;99.90
52211;DHT22;38179;52.756;6.906;2023-03-01T13:57:53;6.80;99.90
52211;DHT22;38179;52.756;6.906;2023-03-01T14:00:35;6.80;99.90
52211;DHT22;38179;52.756;6.906;2023-03-01T14:03:19;6.80;99.90
52211;DHT22;38179;52.756;6.906;2023-03-01T14:06:13;6.80;99.90
52211;DHT22;38179;52.756;6.906;2023-03-01T14:08:40;6.90;99.90
52211;DHT22;38179;52.756;6.906;2023-03-01T14:19:33;6.80;99.90
52211;DHT22;38179;52.756;6.906;2023-03-01T14:22:20;6.70;99.90
52211;DHT22;38179;52.756;6.906;2023-03-01T14:24:54;6.70;99.90
52211;DHT22;38179;52.756;6.906;2023-03-01T14:27:20;6.70;99.90
52211;DHT22;38179;52.756;6.906;2023-03-01T14:29:58;6.70;99.90
52211;DHT22;38179;52.756;6.906;2023-03-01T14:32:30;6.70;99.90
52211;DHT22;38179;52.756;6.906;2023-03-01T14:34:58;6.70;99.90
52211;DHT22;38179;52.756;6.906;2023-03-01T14:37:32;6.70;99.90
52211;DHT22;38179;52.756;6.906;2023-03-01T14:40:00;6.70;99.90
52211;DHT22;38179;52.756;6.906;2023-03-01T14:42:34;6.80;99.90
52211;DHT22;38179;52.756;6.906;2023-03-01T14:45:02;6.80;99.90
52211;DHT22;38179;52.756;6.906;2023-03-01T14:47:46;6.80;99.90
52211;DHT22;38179;52.756;6.906;2023-03-01T14:50:18;6.90;99.90
52211;DHT22;38179;52.756;6.906;2023-03-01T14:52:47;6.80;99.90
52211;DHT22;38179;52.756;6.906;2023-03-01T14:55:23;6.70;99.90
52211;DHT22;38179;52.756;6.906;2023-03-01T14:58:28;6.80;99.90
52211;DHT22;38179;52.756;6.906;2023-03-01T15:00:56;6.80;99.90
52211;DHT22;38179;52.756;6.906;2023-03-01T15:03:25;6.80;99.90
52211;DHT22;38179;52.756;6.906;2023-03-01T15:05:52;6.70;99.90
52211;DHT22;38179;52.756;6.906;2023-03-01T15:08:23;6.70;99.90
52211;DHT22;38179;52.756;6.906;2023-03-01T15:13:33;6.70;99.90
52211;DHT22;38179;52.756;6.906;2023-03-01T15:16:10;6.70;99.90
52211;DHT22;38179;52.756;6.906;2023-03-01T15:18:44;6.60;99.90
52211;DHT22;38179;52.756;6.906;2023-03-01T15:21:21;6.60;99.90
52211;DHT22;38179;52.756;6.906;2023-03-01T15:23:58;6.60;99.90
52211;DHT22;38179;52.756;6.906;2023-03-01T15:26:34;6.60;99.90
52211;DHT22;38179;52.756;6.906;2023-03-01T15:29:18;6.60;99.90
52211;DHT22;38179;52.756;6.906;2023-03-01T15:31:58;6.60;99.90
52211;DHT22;38179;52.756;6.906;2023-03-01T15:34:28;6.50;99.90
52211;DHT22;38179;52.756;6.906;2023-03-01T15:36:57;6.50;99.90
52211;DHT22;38179;52.756;6.906;2023-03-01T15:41:50;6.40;99.90
52211;DHT22;38179;52.756;6.906;2023-03-01T15:44:17;6.40;99.90
52211;DHT22;38179;52.756;6.906;2023-03-01T15:46:47;6.40;99.90
52211;DHT22;38179;52.756;6.906;2023-03-01T15:49:39;6.50;99.90
52211;DHT22;38179;52.756;6.906;2023-03-01T15:52:13;6.40;99.90
52211;DHT22;38179;52.756;6.906;2023-03-01T15:54:41;6.40;99.90
52211;DHT22;38179;52.756;6.906;2023-03-01T15:57:13;6.40;99.90
52211;DHT22;38179;52.756;6.906;2023-03-01T15:59:41;6.40;99.90
52211;DHT22;38179;52.756;6.906;2023-03-01T16:02:10;6.50;99.90
52211;DHT22;38179;52.756;6.906;2023-03-01T16:04:38;6.50;99.90
52211;DHT22;38179;52.756;6.906;2023-03-01T16:07:26;6.50;99.90
52211;DHT22;38179;52.756;6.906;2023-03-01T16:09:53;6.50;99.90
52211;DHT22;38179;52.756;6.906;2023-03-01T16:12:19;6.50;99.90
52211;DHT22;38179;52.756;6.906;2023-03-01T16:14:46;6.50;99.90
52211;DHT22;38179;52.756;6.906;2023-03-01T16:17:16;6.40;99.90
52211;DHT22;38179;52.756;6.906;2023-03-01T16:19:42;6.40;99.90
52211;DHT22;38179;52.756;6.906;2023-03-01T16:22:10;6.30;99.90
52211;DHT22;38179;52.756;6.906;2023-03-01T16:24:36;6.30;99.90
52211;DHT22;38179;52.756;6.906;2023-03-01T16:27:02;6.30;99.90
52211;DHT22;38179;52.756;6.906;2023-03-01T16:29:28;6.30;99.90
52211;DHT22;38179;52.756;6.906;2023-03-01T16:31:55;6.20;99.90
52211;DHT22;38179;52.756;6.906;2023-03-01T16:34:21;6.20;99.90
52211;DHT22;38179;52.756;6.906;2023-03-01T16:36:47;6.10;99.90
52211;DHT22;38179;52.756;6.906;2023-03-01T16:39:13;6.10;99.90
52211;DHT22;38179;52.756;6.906;2023-03-01T16:41:39;6.00;99.90
52211;DHT22;38179;52.756;6.906;2023-03-01T16:44:05;6.00;99.90
52211;DHT22;38179;52.756;6.906;2023-03-01T16:46:31;5.90;99.90
52211;DHT22;38179;52.756;6.906;2023-03-01T16:48:57;5.90;99.90
52211;DHT22;38179;52.756;6.906;2023-03-01T16:51:23;5.80;99.90
52211;DHT22;38179;52.756;6.906;2023-03-01T16:53:50;5.80;99.90
52211;DHT22;38179;52.756;6.906;2023-03-01T16:56:17;5.70;99.90
52211;DHT22;38179;52.756;6.906;2023-03-01T16:58:43;5.70;99.90
52211;DHT22;38179;52.756;6.906;2023-03-01T17:01:15;5.60;99.90
52211;DHT22;38179;52.756;6.906;2023-03-01T17:03:41;5.60;99.90
52211;DHT22;38179;52.756;6.906;2023-03-01T17:06:13;5.60;99.90
52211;DHT22;38179;52.756;6.906;2023-03-01T17:08:40;5.50;99.90
52211;DHT22;38179;52.756;6.906;2023-03-01T17:11:11;5.50;99.90
52211;DHT22;38179;52.756;6.906;2023-03-01T17:13:38;5.50;99.90
52211;DHT22;38179;52.756;6.906;2023-03-01T17:16:12;5.40;99.90
52211;DHT22;38179;52.756;6.906;2023-03-01T17:18:38;5.30;99.90
52211;DHT22;38179;52.756;6.906;2023-03-01T17:21:05;5.20;99.90
52211;DHT22;38179;52.756;6.906;2023-03-01T17:23:33;5.20;99.90
52211;DHT22;38179;52.756;6.906;2023-03-01T17:25:59;5.20;99.90
52211;DHT22;38179;52.756;6.906;2023-03-01T17:28:29;5.10;99.90
52211;DHT22;38179;52.756;6.906;2023-03-01T17:30:55;5.00;99.90
52211;DHT22;38179;52.756;6.906;2023-03-01T17:33:21;5.00;99.90
52211;DHT22;38179;52.756;6.906;2023-03-01T17:35:49;4.90;99.90
52211;DHT22;38179;52.756;6.906;2023-03-01T17:38:16;4.80;99.90
52211;DHT22;38179;52.756;6.906;2023-03-01T17:40:43;4.80;99.90
52211;DHT22;38179;52.756;6.906;2023-03-01T17:43:13;4.70;99.90
52211;DHT22;38179;52.756;6.906;2023-03-01T17:45:39;4.70;99.90
52211;DHT22;38179;52.756;6.906;2023-03-01T17:48:06;4.60;99.90
52211;DHT22;38179;52.756;6.906;2023-03-01T17:50:33;4.60;99.90
52211;DHT22;38179;52.756;6.906;2023-03-01T17:53:01;4.60;99.90
52211;DHT22;38179;52.756;6.906;2023-03-01T17:55:32;4.60;99.90
52211;DHT22;38179;52.756;6.906;2023-03-01T17:57:57;4.50;99.90